createdAt,value
2022-11-05T00:00:06.959Z,12.98
2022-11-05T00:02:53.872Z,13.70
2022-11-05T00:05:40.879Z,14.85
2022-11-05T00:08:27.758Z,14.30
2022-11-05T00:10:56.834Z,12.18
2022-11-05T00:13:43.820Z,15.35
2022-11-05T00:16:30.100Z,16.13
2022-11-05T00:25:06.483Z,13.60
2022-11-05T00:27:35.077Z,14.48
2022-11-05T00:30:07.948Z,15.40
2022-11-05T00:32:37.621Z,15.43
2022-11-05T00:35:07.604Z,14.98
2022-11-05T00:37:36.081Z,17.15
2022-11-05T00:40:04.774Z,16.60
2022-11-05T00:42:50.965Z,16.52
2022-11-05T00:45:19.035Z,16.13
2022-11-05T00:48:06.122Z,15.65
2022-11-05T00:50:34.942Z,15.52
2022-11-05T00:53:04.129Z,15.93
2022-11-05T00:55:42.716Z,17.42
2022-11-05T00:58:21.106Z,15.98
2022-11-05T01:00:54.642Z,18.15
2022-11-05T01:03:26.809Z,17.08
2022-11-05T01:06:06.883Z,17.20
2022-11-05T01:08:34.713Z,15.75
2022-11-05T01:11:33.698Z,16.17
2022-11-05T01:14:05.681Z,17.67
2022-11-05T01:16:34.675Z,16.80
2022-11-05T01:19:04.730Z,15.40
2022-11-05T01:21:33.205Z,16.17
2022-11-05T01:24:02.654Z,15.63
2022-11-05T01:26:32.447Z,17.00
2022-11-05T01:29:03.415Z,18.13
2022-11-05T01:31:31.508Z,15.45
2022-11-05T01:34:01.961Z,16.30
2022-11-05T01:36:30.003Z,15.43
2022-11-05T01:38:57.517Z,15.88
2022-11-05T01:41:25.116Z,16.60
2022-11-05T01:43:56.720Z,15.38
2022-11-05T01:46:40.005Z,14.70
2022-11-05T01:49:33.344Z,13.68
2022-11-05T01:52:08.073Z,13.55
2022-11-05T01:54:36.774Z,11.63
2022-11-05T01:57:11.053Z,11.07
2022-11-05T01:59:47.211Z,10.80
2022-11-05T02:02:16.156Z,12.10
2022-11-05T02:04:51.306Z,10.95
2022-11-05T02:07:19.314Z,12.05
2022-11-05T02:09:57.463Z,12.93
2022-11-05T02:12:30.013Z,13.82
2022-11-05T02:32:35.964Z,14.35
2022-11-05T03:01:53.392Z,12.32
2022-11-05T03:04:25.328Z,12.82
2022-11-05T03:07:05.459Z,11.70
2022-11-05T03:10:00.684Z,11.20
2022-11-05T03:12:59.348Z,11.70
2022-11-05T03:15:46.724Z,12.07
2022-11-05T03:28:08.973Z,13.27
2022-11-05T03:30:39.299Z,13.80
2022-11-05T03:33:16.202Z,15.15
2022-11-05T03:35:54.188Z,16.75
2022-11-05T03:38:29.210Z,17.70
2022-11-05T03:41:01.706Z,21.40
2022-11-05T03:43:35.936Z,20.95
2022-11-05T03:46:11.195Z,20.83
2022-11-05T03:48:48.756Z,21.88
2022-11-05T03:51:30.613Z,21.23
2022-11-05T03:54:03.647Z,22.03
2022-11-05T03:56:49.021Z,22.05
2022-11-05T03:59:18.503Z,21.90
2022-11-05T04:01:45.698Z,21.75
2022-11-05T04:04:12.953Z,21.05
2022-11-05T04:06:59.288Z,19.83
2022-11-05T04:09:45.601Z,21.05
2022-11-05T04:12:31.720Z,21.63
2022-11-05T04:14:59.160Z,20.70
2022-11-05T04:17:26.333Z,22.02
2022-11-05T04:34:55.503Z,19.25
2022-11-05T04:37:22.889Z,20.27
